sensor_id;sensor_type;location;lat;lon;timestamp;pressure;altitude;pressure_sealevel;temperature;humidity
29359;BME280;16347;53.232;6.556;2022-12-11T00:00:55;101150.47;;;1.91;73.04
29359;BME280;16347;53.232;6.556;2022-12-11T00:03:23;101155.16;;;1.87;73.40
29359;BME280;16347;53.232;6.556;2022-12-11T00:05:51;101151.03;;;1.82;73.00
29359;BME280;16347;53.232;6.556;2022-12-11T00:08:20;101158.88;;;1.85;72.92
29359;BME280;16347;53.232;6.556;2022-12-11T00:10:48;101152.97;;;1.94;72.87
29359;BME280;16347;53.232;6.556;2022-12-11T00:13:16;101160.63;;;2.00;72.72
29359;BME280;16347;53.232;6.556;2022-12-11T00:15:44;101148.06;;;1.86;73.09
29359;BME280;16347;53.232;6.556;2022-12-11T00:18:12;101149.22;;;2.11;72.99
29359;BME280;16347;53.232;6.556;2022-12-11T00:20:40;101147.47;;;1.95;72.50
29359;BME280;16347;53.232;6.556;2022-12-11T00:23:09;101140.31;;;1.96;72.67
29359;BME280;16347;53.232;6.556;2022-12-11T00:25:41;101148.81;;;1.88;73.23
29359;BME280;16347;53.232;6.556;2022-12-11T00:28:11;101144.63;;;1.84;73.12
29359;BME280;16347;53.232;6.556;2022-12-11T00:30:39;101153.81;;;1.94;73.28
29359;BME280;16347;53.232;6.556;2022-12-11T00:33:09;101147.78;;;1.91;73.42
29359;BME280;16347;53.232;6.556;2022-12-11T00:35:39;101145.88;;;2.07;73.26
29359;BME280;16347;53.232;6.556;2022-12-11T00:38:07;101137.69;;;2.08;73.04
29359;BME280;16347;53.232;6.556;2022-12-11T00:40:36;101128.41;;;2.14;72.89
29359;BME280;16347;53.232;6.556;2022-12-11T00:43:05;101132.72;;;2.17;72.57
29359;BME280;16347;53.232;6.556;2022-12-11T00:45:35;101133.41;;;2.06;72.40
29359;BME280;16347;53.232;6.556;2022-12-11T00:48:04;101140.09;;;2.27;72.54
29359;BME280;16347;53.232;6.556;2022-12-11T00:50:32;101141.81;;;2.28;72.21
29359;BME280;16347;53.232;6.556;2022-12-11T00:53:01;101143.22;;;2.34;72.03
29359;BME280;16347;53.232;6.556;2022-12-11T00:55:30;101143.69;;;2.40;72.11
29359;BME280;16347;53.232;6.556;2022-12-11T00:57:59;101153.31;;;2.57;71.33
29359;BME280;16347;53.232;6.556;2022-12-11T01:00:28;101150.06;;;2.52;71.41
29359;BME280;16347;53.232;6.556;2022-12-11T01:02:56;101151.34;;;2.46;71.27
29359;BME280;16347;53.232;6.556;2022-12-11T01:05:24;101149.91;;;2.55;71.38
29359;BME280;16347;53.232;6.556;2022-12-11T01:07:52;101148.63;;;2.61;71.23
29359;BME280;16347;53.232;6.556;2022-12-11T01:10:21;101154.88;;;2.47;71.14
29359;BME280;16347;53.232;6.556;2022-12-11T01:12:53;101147.59;;;2.49;71.37
29359;BME280;16347;53.232;6.556;2022-12-11T01:15:23;101152.47;;;2.56;71.20
29359;BME280;16347;53.232;6.556;2022-12-11T01:17:53;101152.91;;;2.63;70.86
29359;BME280;16347;53.232;6.556;2022-12-11T01:20:22;101155.16;;;2.56;71.07
29359;BME280;16347;53.232;6.556;2022-12-11T01:22:51;101148.00;;;2.70;71.29
29359;BME280;16347;53.232;6.556;2022-12-11T01:25:20;101152.75;;;2.79;70.54
29359;BME280;16347;53.232;6.556;2022-12-11T01:27:49;101152.97;;;2.76;70.72
29359;BME280;16347;53.232;6.556;2022-12-11T01:30:19;101154.28;;;2.83;70.47
29359;BME280;16347;53.232;6.556;2022-12-11T01:32:48;101155.66;;;2.76;70.56
29359;BME280;16347;53.232;6.556;2022-12-11T01:35:18;101158.03;;;2.80;70.18
29359;BME280;16347;53.232;6.556;2022-12-11T01:37:46;101163.81;;;3.01;70.74
29359;BME280;16347;53.232;6.556;2022-12-11T01:40:17;101169.78;;;3.19;70.68
29359;BME280;16347;53.232;6.556;2022-12-11T01:42:45;101174.66;;;3.39;70.38
29359;BME280;16347;53.232;6.556;2022-12-11T01:45:36;101175.41;;;3.53;69.63
29359;BME280;16347;53.232;6.556;2022-12-11T01:48:08;101175.63;;;3.50;69.26
29359;BME280;16347;53.232;6.556;2022-12-11T01:50:41;101173.06;;;3.49;68.60
29359;BME280;16347;53.232;6.556;2022-12-11T01:53:14;101180.47;;;3.45;68.32
29359;BME280;16347;53.232;6.556;2022-12-11T01:55:45;101175.31;;;3.42;68.65
29359;BME280;16347;53.232;6.556;2022-12-11T01:58:15;101173.66;;;3.40;68.99
29359;BME280;16347;53.232;6.556;2022-12-11T02:00:45;101166.25;;;3.56;68.75
29359;BME280;16347;53.232;6.556;2022-12-11T02:03:13;101164.34;;;3.58;68.26
29359;BME280;16347;53.232;6.556;2022-12-11T02:05:42;101170.25;;;3.50;68.35
29359;BME280;16347;53.232;6.556;2022-12-11T02:08:11;101174.31;;;3.56;68.25
29359;BME280;16347;53.232;6.556;2022-12-11T02:10:48;101172.09;;;3.63;68.25
29359;BME280;16347;53.232;6.556;2022-12-11T02:13:26;101168.97;;;3.69;68.56
29359;BME280;16347;53.232;6.556;2022-12-11T02:15:59;101162.84;;;3.67;67.95
29359;BME280;16347;53.232;6.556;2022-12-11T02:18:35;101159.63;;;3.61;67.91
29359;BME280;16347;53.232;6.556;2022-12-11T02:21:09;101160.13;;;3.54;67.81
29359;BME280;16347;53.232;6.556;2022-12-11T02:23:59;101151.44;;;3.63;68.19
29359;BME280;16347;53.232;6.556;2022-12-11T02:26:42;101146.34;;;3.46;68.46
29359;BME280;16347;53.232;6.556;2022-12-11T02:29:17;101146.19;;;3.49;68.58
29359;BME280;16347;53.232;6.556;2022-12-11T02:31:50;101149.94;;;3.59;68.53
29359;BME280;16347;53.232;6.556;2022-12-11T02:34:23;101144.13;;;3.52;68.63
29359;BME280;16347;53.232;6.556;2022-12-11T02:36:56;101152.38;;;3.49;68.73
29359;BME280;16347;53.232;6.556;2022-12-11T02:39:26;101135.94;;;3.54;68.61
29359;BME280;16347;53.232;6.556;2022-12-11T02:41:55;101136.16;;;3.51;68.73
29359;BME280;16347;53.232;6.556;2022-12-11T02:44:28;101136.16;;;3.38;69.07
29359;BME280;16347;53.232;6.556;2022-12-11T02:46:57;101141.97;;;3.32;69.05
29359;BME280;16347;53.232;6.556;2022-12-11T02:49:26;101136.25;;;3.24;69.26
29359;BME280;16347;53.232;6.556;2022-12-11T02:51:55;101136.88;;;3.15;69.99
29359;BME280;16347;53.232;6.556;2022-12-11T02:54:27;101137.75;;;3.16;70.27
29359;BME280;16347;53.232;6.556;2022-12-11T02:57:00;101136.88;;;3.15;70.60
29359;BME280;16347;53.232;6.556;2022-12-11T02:59:31;101141.09;;;3.44;70.38
29359;BME280;16347;53.232;6.556;2022-12-11T03:02:01;101138.50;;;3.18;70.53
29359;BME280;16347;53.232;6.556;2022-12-11T03:04:30;101135.38;;;3.24;70.52
29359;BME280;16347;53.232;6.556;2022-12-11T03:07:03;101135.81;;;3.30;70.52
29359;BME280;16347;53.232;6.556;2022-12-11T03:09:38;101127.97;;;3.40;70.53
29359;BME280;16347;53.232;6.556;2022-12-11T03:12:06;101127.97;;;3.40;70.34
29359;BME280;16347;53.232;6.556;2022-12-11T03:14:38;101113.78;;;3.50;70.00
29359;BME280;16347;53.232;6.556;2022-12-11T03:17:11;101114.00;;;3.60;69.84
29359;BME280;16347;53.232;6.556;2022-12-11T03:19:46;101110.16;;;3.51;69.47
29359;BME280;16347;53.232;6.556;2022-12-11T03:22:20;101111.63;;;3.43;69.95
29359;BME280;16347;53.232;6.556;2022-12-11T03:24:51;101115.63;;;3.37;69.56
29359;BME280;16347;53.232;6.556;2022-12-11T03:27:25;101112.84;;;3.39;69.93
29359;BME280;16347;53.232;6.556;2022-12-11T03:29:58;101113.28;;;3.45;70.10
29359;BME280;16347;53.232;6.556;2022-12-11T03:32:28;101109.94;;;3.42;70.11
29359;BME280;16347;53.232;6.556;2022-12-11T03:35:01;101107.91;;;3.45;69.85
29359;BME280;16347;53.232;6.556;2022-12-11T03:37:33;101112.72;;;3.53;69.81
29359;BME280;16347;53.232;6.556;2022-12-11T03:40:07;101109.06;;;3.54;69.51
29359;BME280;16347;53.232;6.556;2022-12-11T03:42:38;101115.09;;;3.57;69.32
29359;BME280;16347;53.232;6.556;2022-12-11T03:45:09;101109.38;;;3.49;69.76
29359;BME280;16347;53.232;6.556;2022-12-11T03:47:40;101110.56;;;3.58;69.70
29359;BME280;16347;53.232;6.556;2022-12-11T03:50:11;101116.38;;;3.52;69.65
29359;BME280;16347;53.232;6.556;2022-12-11T03:52:42;101113.25;;;3.58;69.46
29359;BME280;16347;53.232;6.556;2022-12-11T03:55:13;101110.59;;;3.45;69.71
29359;BME280;16347;53.232;6.556;2022-12-11T03:57:43;101109.06;;;3.54;69.87
29359;BME280;16347;53.232;6.556;2022-12-11T04:00:15;101107.75;;;3.59;69.78
29359;BME280;16347;53.232;6.556;2022-12-11T04:02:44;101097.66;;;3.63;69.85
29359;BME280;16347;53.232;6.556;2022-12-11T04:05:39;101099.06;;;3.69;69.75
29359;BME280;16347;53.232;6.556;2022-12-11T04:08:08;101101.56;;;3.59;69.53
29359;BME280;16347;53.232;6.556;2022-12-11T04:10:37;101099.81;;;3.71;69.48
29359;BME280;16347;53.232;6.556;2022-12-11T04:13:05;101098.50;;;3.76;69.44
29359;BME280;16347;53.232;6.556;2022-12-11T04:15:36;101093.75;;;3.80;69.05
29359;BME280;16347;53.232;6.556;2022-12-11T04:18:05;101097.97;;;3.71;69.36
29359;BME280;16347;53.232;6.556;2022-12-11T04:20:52;101099.50;;;3.75;69.11
29359;BME280;16347;53.232;6.556;2022-12-11T04:23:38;101098.19;;;3.68;69.05
29359;BME280;16347;53.232;6.556;2022-12-11T04:26:24;101101.13;;;3.52;69.19
29359;BME280;16347;53.232;6.556;2022-12-11T04:28:53;101102.81;;;3.41;69.94
29359;BME280;16347;53.232;6.556;2022-12-11T04:31:22;101099.72;;;3.47;70.08
29359;BME280;16347;53.232;6.556;2022-12-11T04:33:50;101098.41;;;3.65;70.25
29359;BME280;16347;53.232;6.556;2022-12-11T04:36:18;101100.66;;;3.46;69.64
29359;BME280;16347;53.232;6.556;2022-12-11T04:38:47;101100.03;;;3.55;69.71
29359;BME280;16347;53.232;6.556;2022-12-11T04:41:15;101095.97;;;3.62;69.85
29359;BME280;16347;53.232;6.556;2022-12-11T04:43:44;101087.75;;;3.63;69.56
29359;BME280;16347;53.232;6.556;2022-12-11T04:46:13;101089.72;;;3.61;69.10
29359;BME280;16347;53.232;6.556;2022-12-11T04:48:43;101092.28;;;3.63;69.22
29359;BME280;16347;53.232;6.556;2022-12-11T04:51:12;101097.44;;;3.66;69.51
29359;BME280;16347;53.232;6.556;2022-12-11T04:53:40;101086.47;;;3.56;69.33
29359;BME280;16347;53.232;6.556;2022-12-11T04:56:11;101083.16;;;3.66;69.53
29359;BME280;16347;53.232;6.556;2022-12-11T04:58:39;101083.16;;;3.66;69.48
29359;BME280;16347;53.232;6.556;2022-12-11T05:01:08;101074.75;;;3.57;69.45
29359;BME280;16347;53.232;6.556;2022-12-11T05:03:37;101084.13;;;3.52;69.33
29359;BME280;16347;53.232;6.556;2022-12-11T05:06:08;101080.78;;;3.61;69.50
29359;BME280;16347;53.232;6.556;2022-12-11T05:08:37;101083.69;;;3.58;69.47
29359;BME280;16347;53.232;6.556;2022-12-11T05:11:08;101092.63;;;3.58;69.35
29359;BME280;16347;53.232;6.556;2022-12-11T05:13:37;101088.97;;;3.72;69.26
29359;BME280;16347;53.232;6.556;2022-12-11T05:16:07;101084.75;;;3.43;69.30
29359;BME280;16347;53.232;6.556;2022-12-11T05:18:36;101098.75;;;3.48;69.58
29359;BME280;16347;53.232;6.556;2022-12-11T05:21:07;101086.91;;;3.38;70.07
29359;BME280;16347;53.232;6.556;2022-12-11T05:23:35;101082.19;;;3.29;70.38
29359;BME280;16347;53.232;6.556;2022-12-11T05:26:06;101088.97;;;3.34;70.45
29359;BME280;16347;53.232;6.556;2022-12-11T05:28:36;101080.59;;;3.39;70.26
29359;BME280;16347;53.232;6.556;2022-12-11T05:31:06;101076.28;;;3.49;70.06
29359;BME280;16347;53.232;6.556;2022-12-11T05:33:35;101078.75;;;3.52;69.93
29359;BME280;16347;53.232;6.556;2022-12-11T05:36:03;101081.00;;;3.58;69.66
29359;BME280;16347;53.232;6.556;2022-12-11T05:38:33;101070.91;;;3.49;69.88
29359;BME280;16347;53.232;6.556;2022-12-11T05:41:03;101076.59;;;3.32;70.22
29359;BME280;16347;53.232;6.556;2022-12-11T05:43:35;101075.72;;;3.44;70.08
29359;BME280;16347;53.232;6.556;2022-12-11T05:46:04;101069.41;;;3.32;70.39
29359;BME280;16347;53.232;6.556;2022-12-11T05:48:33;101057.22;;;3.39;70.22
29359;BME280;16347;53.232;6.556;2022-12-11T05:51:02;101048.84;;;3.44;70.09
29359;BME280;16347;53.232;6.556;2022-12-11T05:53:32;101058.75;;;3.43;69.91
29359;BME280;16347;53.232;6.556;2022-12-11T05:56:02;101061.56;;;3.42;70.04
29359;BME280;16347;53.232;6.556;2022-12-11T05:58:30;101063.91;;;3.46;70.09
29359;BME280;16347;53.232;6.556;2022-12-11T06:00:59;101066.16;;;3.65;69.70
29359;BME280;16347;53.232;6.556;2022-12-11T06:03:27;101054.88;;;3.35;69.67
29359;BME280;16347;53.232;6.556;2022-12-11T06:05:56;101058.88;;;3.42;69.93
29359;BME280;16347;53.232;6.556;2022-12-11T06:08:24;101057.66;;;3.46;69.87
29359;BME280;16347;53.232;6.556;2022-12-11T06:10:53;101061.34;;;3.45;70.01
29359;BME280;16347;53.232;6.556;2022-12-11T06:13:22;101061.13;;;3.48;69.90
29359;BME280;16347;53.232;6.556;2022-12-11T06:15:50;101051.66;;;3.55;70.03
29359;BME280;16347;53.232;6.556;2022-12-11T06:18:18;101059.19;;;3.63;69.64
29359;BME280;16347;53.232;6.556;2022-12-11T06:20:46;101054.34;;;3.42;69.81
29359;BME280;16347;53.232;6.556;2022-12-11T06:23:15;101061.31;;;3.57;69.73
29359;BME280;16347;53.232;6.556;2022-12-11T06:25:44;101063.97;;;3.70;69.60
29359;BME280;16347;53.232;6.556;2022-12-11T06:28:13;101061.84;;;3.75;68.71
29359;BME280;16347;53.232;6.556;2022-12-11T06:30:42;101061.09;;;3.60;68.81
29359;BME280;16347;53.232;6.556;2022-12-11T06:33:10;101065.84;;;3.44;69.26
29359;BME280;16347;53.232;6.556;2022-12-11T06:35:39;101060.25;;;3.35;69.52
29359;BME280;16347;53.232;6.556;2022-12-11T06:38:08;101058.31;;;3.49;69.73
29359;BME280;16347;53.232;6.556;2022-12-11T06:40:36;101064.31;;;3.53;69.71
29359;BME280;16347;53.232;6.556;2022-12-11T06:43:05;101063.66;;;3.75;69.58
29359;BME280;16347;53.232;6.556;2022-12-11T06:45:35;101065.81;;;3.82;69.20
29359;BME280;16347;53.232;6.556;2022-12-11T06:48:04;101068.50;;;3.70;68.47
29359;BME280;16347;53.232;6.556;2022-12-11T06:50:32;101070.56;;;3.41;69.05
29359;BME280;16347;53.232;6.556;2022-12-11T06:53:00;101065.59;;;3.60;69.07
29359;BME280;16347;53.232;6.556;2022-12-11T06:55:29;101067.53;;;3.71;69.01
29359;BME280;16347;53.232;6.556;2022-12-11T06:57:57;101069.50;;;3.69;68.67
29359;BME280;16347;53.232;6.556;2022-12-11T07:00:25;101067.97;;;3.77;68.82
29359;BME280;16347;53.232;6.556;2022-12-11T07:02:54;101080.31;;;3.80;68.58
29359;BME280;16347;53.232;6.556;2022-12-11T07:05:22;101087.47;;;3.55;68.12
29359;BME280;16347;53.232;6.556;2022-12-11T07:07:52;101092.41;;;3.49;68.99
29359;BME280;16347;53.232;6.556;2022-12-11T07:10:20;101092.50;;;3.60;69.43
29359;BME280;16347;53.232;6.556;2022-12-11T07:12:51;101102.09;;;3.51;68.90
29359;BME280;16347;53.232;6.556;2022-12-11T07:15:19;101091.97;;;3.55;68.87
29359;BME280;16347;53.232;6.556;2022-12-11T07:17:47;101094.31;;;3.47;68.99
29359;BME280;16347;53.232;6.556;2022-12-11T07:20:16;101095.50;;;3.43;68.98
29359;BME280;16347;53.232;6.556;2022-12-11T07:22:44;101089.50;;;3.52;69.02
29359;BME280;16347;53.232;6.556;2022-12-11T07:25:12;101092.59;;;3.46;68.88
29359;BME280;16347;53.232;6.556;2022-12-11T07:27:41;101090.91;;;3.45;69.04
29359;BME280;16347;53.232;6.556;2022-12-11T07:30:10;101085.19;;;3.37;69.69
29359;BME280;16347;53.232;6.556;2022-12-11T07:32:38;101087.34;;;3.57;69.59
29359;BME280;16347;53.232;6.556;2022-12-11T07:35:07;101093.25;;;3.62;69.23
29359;BME280;16347;53.232;6.556;2022-12-11T07:37:39;101094.66;;;3.68;69.18
29359;BME280;16347;53.232;6.556;2022-12-11T07:40:08;101085.59;;;3.81;68.77
29359;BME280;16347;53.232;6.556;2022-12-11T07:42:37;101087.56;;;3.79;68.44
29359;BME280;16347;53.232;6.556;2022-12-11T07:45:12;101092.34;;;3.87;68.34
29359;BME280;16347;53.232;6.556;2022-12-11T07:47:40;101088.91;;;3.97;68.30
29359;BME280;16347;53.232;6.556;2022-12-11T07:50:08;101084.78;;;4.04;68.36
29359;BME280;16347;53.232;6.556;2022-12-11T07:52:36;101088.31;;;4.18;68.67
29359;BME280;16347;53.232;6.556;2022-12-11T07:55:06;101087.03;;;4.10;67.95
29359;BME280;16347;53.232;6.556;2022-12-11T07:57:36;101091.97;;;4.17;67.72
29359;BME280;16347;53.232;6.556;2022-12-11T08:00:05;101090.50;;;4.12;67.74
29359;BME280;16347;53.232;6.556;2022-12-11T08:02:38;101084.66;;;4.19;67.62
29359;BME280;16347;53.232;6.556;2022-12-11T08:05:07;101085.84;;;4.14;67.79
29359;BME280;16347;53.232;6.556;2022-12-11T08:07:36;101089.34;;;4.28;67.41
29359;BME280;16347;53.232;6.556;2022-12-11T08:10:06;101093.66;;;4.30;67.52
29359;BME280;16347;53.232;6.556;2022-12-11T08:12:34;101091.34;;;4.37;67.36
29359;BME280;16347;53.232;6.556;2022-12-11T08:15:03;101090.69;;;4.22;67.24
29359;BME280;16347;53.232;6.556;2022-12-11T08:17:31;101087.34;;;4.19;67.18
29359;BME280;16347;53.232;6.556;2022-12-11T08:20:07;101082.06;;;4.30;67.52
29359;BME280;16347;53.232;6.556;2022-12-11T08:22:35;101090.63;;;4.35;67.41
29359;BME280;16347;53.232;6.556;2022-12-11T08:25:03;101087.00;;;4.47;67.26
29359;BME280;16347;53.232;6.556;2022-12-11T08:27:33;101093.25;;;4.47;67.06
29359;BME280;16347;53.232;6.556;2022-12-11T08:30:02;101093.34;;;4.58;66.82
29359;BME280;16347;53.232;6.556;2022-12-11T08:32:30;101092.47;;;4.58;66.40
29359;BME280;16347;53.232;6.556;2022-12-11T08:34:58;101089.59;;;4.48;66.35
29359;BME280;16347;53.232;6.556;2022-12-11T08:37:26;101087.06;;;4.34;66.56
29359;BME280;16347;53.232;6.556;2022-12-11T08:39:55;101088.03;;;4.33;66.40
29359;BME280;16347;53.232;6.556;2022-12-11T08:42:23;101091.94;;;4.29;66.52
29359;BME280;16347;53.232;6.556;2022-12-11T08:44:52;101093.97;;;4.38;67.09
29359;BME280;16347;53.232;6.556;2022-12-11T08:47:20;101099.25;;;4.40;67.37
29359;BME280;16347;53.232;6.556;2022-12-11T08:49:48;101091.66;;;4.45;67.18
29359;BME280;16347;53.232;6.556;2022-12-11T08:52:16;101096.81;;;4.48;66.98
29359;BME280;16347;53.232;6.556;2022-12-11T08:54:44;101096.00;;;4.35;66.92
29359;BME280;16347;53.232;6.556;2022-12-11T08:57:12;101093.97;;;4.38;67.04
29359;BME280;16347;53.232;6.556;2022-12-11T08:59:42;101093.72;;;4.41;66.82
29359;BME280;16347;53.232;6.556;2022-12-11T09:02:12;101098.81;;;4.33;66.97
29359;BME280;16347;53.232;6.556;2022-12-11T09:04:40;101097.78;;;4.10;67.35
29359;BME280;16347;53.232;6.556;2022-12-11T09:07:08;101092.19;;;4.13;67.58
29359;BME280;16347;53.232;6.556;2022-12-11T09:09:37;101088.22;;;4.19;67.52
29359;BME280;16347;53.232;6.556;2022-12-11T09:12:05;101088.50;;;4.27;67.65
29359;BME280;16347;53.232;6.556;2022-12-11T09:14:33;101092.69;;;4.31;67.50
29359;BME280;16347;53.232;6.556;2022-12-11T09:17:02;101103.59;;;4.30;67.35
29359;BME280;16347;53.232;6.556;2022-12-11T09:19:32;101093.88;;;4.27;68.07
29359;BME280;16347;53.232;6.556;2022-12-11T09:22:00;101103.34;;;4.33;67.97
29359;BME280;16347;53.232;6.556;2022-12-11T09:24:29;101098.59;;;4.36;67.72
29359;BME280;16347;53.232;6.556;2022-12-11T09:26:57;101090.00;;;4.31;67.54
29359;BME280;16347;53.232;6.556;2022-12-11T09:29:25;101082.78;;;4.32;67.66
29359;BME280;16347;53.232;6.556;2022-12-11T09:31:53;101085.81;;;4.27;67.28
29359;BME280;16347;53.232;6.556;2022-12-11T09:34:21;101085.94;;;4.13;67.44
29359;BME280;16347;53.232;6.556;2022-12-11T09:36:56;101084.13;;;4.13;67.66
29359;BME280;16347;53.232;6.556;2022-12-11T09:39:25;101077.00;;;4.25;68.30
29359;BME280;16347;53.232;6.556;2022-12-11T09:41:58;101082.78;;;4.32;67.99
29359;BME280;16347;53.232;6.556;2022-12-11T09:44:33;101075.44;;;4.34;67.95
29359;BME280;16347;53.232;6.556;2022-12-11T09:47:15;101072.50;;;4.37;68.13
29359;BME280;16347;53.232;6.556;2022-12-11T09:49:45;101075.50;;;4.45;67.78
29359;BME280;16347;53.232;6.556;2022-12-11T09:52:19;101069.81;;;4.37;67.70
29359;BME280;16347;53.232;6.556;2022-12-11T09:54:53;101071.09;;;4.44;67.93
29359;BME280;16347;53.232;6.556;2022-12-11T10:00:16;101071.16;;;4.31;67.32
29359;BME280;16347;53.232;6.556;2022-12-11T10:02:58;101068.59;;;4.30;67.28
29359;BME280;16347;53.232;6.556;2022-12-11T10:05:35;101067.34;;;4.10;67.76
29359;BME280;16347;53.232;6.556;2022-12-11T10:08:13;101074.03;;;4.04;68.37
29359;BME280;16347;53.232;6.556;2022-12-11T10:10:50;101065.00;;;4.05;68.83
29359;BME280;16347;53.232;6.556;2022-12-11T10:13:28;101072.50;;;4.13;68.47
29359;BME280;16347;53.232;6.556;2022-12-11T10:16:02;101067.41;;;4.21;68.13
29359;BME280;16347;53.232;6.556;2022-12-11T10:18:32;101060.94;;;4.24;68.51
29359;BME280;16347;53.232;6.556;2022-12-11T10:21:01;101066.72;;;4.30;68.36
29359;BME280;16347;53.232;6.556;2022-12-11T10:23:33;101057.19;;;4.26;68.38
29359;BME280;16347;53.232;6.556;2022-12-11T10:26:08;101065.41;;;4.12;68.39
29359;BME280;16347;53.232;6.556;2022-12-11T10:28:38;101059.81;;;4.15;68.61
29359;BME280;16347;53.232;6.556;2022-12-11T10:31:13;101058.72;;;4.18;68.87
29359;BME280;16347;53.232;6.556;2022-12-11T10:33:53;101051.91;;;4.25;68.64
29359;BME280;16347;53.232;6.556;2022-12-11T10:36:27;101046.44;;;4.13;68.52
29359;BME280;16347;53.232;6.556;2022-12-11T10:38:57;101049.53;;;4.20;68.73
29359;BME280;16347;53.232;6.556;2022-12-11T10:41:34;101048.88;;;4.29;69.06
29359;BME280;16347;53.232;6.556;2022-12-11T10:44:13;101045.66;;;4.24;68.66
29359;BME280;16347;53.232;6.556;2022-12-11T10:46:43;101049.59;;;4.07;68.48
29359;BME280;16347;53.232;6.556;2022-12-11T10:49:23;101049.44;;;4.22;68.95
29359;BME280;16347;53.232;6.556;2022-12-11T10:51:53;101041.44;;;4.09;68.68
29359;BME280;16347;53.232;6.556;2022-12-11T10:54:30;101042.63;;;4.05;68.99
29359;BME280;16347;53.232;6.556;2022-12-11T10:57:01;101036.38;;;4.04;68.86
29359;BME280;16347;53.232;6.556;2022-12-11T10:59:33;101041.00;;;4.02;69.56
29359;BME280;16347;53.232;6.556;2022-12-11T11:02:05;101046.03;;;4.07;69.28
29359;BME280;16347;53.232;6.556;2022-12-11T11:04:36;101041.84;;;4.03;69.23
29359;BME280;16347;53.232;6.556;2022-12-11T11:07:11;101038.38;;;4.13;69.28
29359;BME280;16347;53.232;6.556;2022-12-11T11:09:41;101044.34;;;4.06;69.17
29359;BME280;16347;53.232;6.556;2022-12-11T11:12:18;101039.44;;;3.87;69.44
29359;BME280;16347;53.232;6.556;2022-12-11T11:14:57;101035.31;;;3.94;69.83
29359;BME280;16347;53.232;6.556;2022-12-11T11:17:27;101035.66;;;3.90;69.82
29359;BME280;16347;53.232;6.556;2022-12-11T11:20:05;101040.94;;;3.91;69.82
29359;BME280;16347;53.232;6.556;2022-12-11T11:22:43;101026.28;;;3.95;69.82
29359;BME280;16347;53.232;6.556;2022-12-11T11:25:17;101032.50;;;4.08;69.68
29359;BME280;16347;53.232;6.556;2022-12-11T11:27:51;101035.72;;;4.01;69.49
29359;BME280;16347;53.232;6.556;2022-12-11T11:30:22;101035.50;;;4.04;69.50
29359;BME280;16347;53.232;6.556;2022-12-11T11:32:53;101035.97;;;3.98;69.72
29359;BME280;16347;53.232;6.556;2022-12-11T11:35:24;101032.56;;;4.20;69.55
29359;BME280;16347;53.232;6.556;2022-12-11T11:37:57;101036.69;;;4.12;69.39
29359;BME280;16347;53.232;6.556;2022-12-11T11:40:30;101033.41;;;4.20;69.40
29359;BME280;16347;53.232;6.556;2022-12-11T11:43:03;101038.44;;;4.48;69.16
29359;BME280;16347;53.232;6.556;2022-12-11T11:45:38;101035.69;;;4.37;68.78
29359;BME280;16347;53.232;6.556;2022-12-11T11:48:18;101043.03;;;4.35;68.48
29359;BME280;16347;53.232;6.556;2022-12-11T11:50:51;101032.03;;;4.38;68.80
29359;BME280;16347;53.232;6.556;2022-12-11T11:53:30;101037.97;;;4.54;68.71
29359;BME280;16347;53.232;6.556;2022-12-11T11:56:16;101032.03;;;4.38;67.99
29359;BME280;16347;53.232;6.556;2022-12-11T11:58:51;101038.28;;;4.39;68.28
29359;BME280;16347;53.232;6.556;2022-12-11T12:01:22;101029.41;;;4.49;68.10
29359;BME280;16347;53.232;6.556;2022-12-11T12:03:51;101025.63;;;4.52;68.12
29359;BME280;16347;53.232;6.556;2022-12-11T12:06:26;101024.34;;;4.45;67.84
29359;BME280;16347;53.232;6.556;2022-12-11T12:09:03;101023.97;;;4.38;67.87
29359;BME280;16347;53.232;6.556;2022-12-11T12:11:45;101030.03;;;4.29;68.29
29359;BME280;16347;53.232;6.556;2022-12-11T12:14:18;101032.97;;;4.26;68.12
29359;BME280;16347;53.232;6.556;2022-12-11T12:17:17;101027.22;;;4.31;68.37
29359;BME280;16347;53.232;6.556;2022-12-11T12:19:51;101031.63;;;4.32;68.49
29359;BME280;16347;53.232;6.556;2022-12-11T12:22:37;101025.06;;;4.12;68.77
29359;BME280;16347;53.232;6.556;2022-12-11T12:25:19;101026.75;;;4.13;68.53
29359;BME280;16347;53.232;6.556;2022-12-11T12:27:56;101022.22;;;4.13;68.63
29359;BME280;16347;53.232;6.556;2022-12-11T12:30:29;101028.13;;;3.95;69.25
29359;BME280;16347;53.232;6.556;2022-12-11T12:33:14;101023.78;;;4.05;69.32
29359;BME280;16347;53.232;6.556;2022-12-11T12:35:52;101017.63;;;4.16;69.57
29359;BME280;16347;53.232;6.556;2022-12-11T12:38:36;101022.06;;;4.28;69.57
29359;BME280;16347;53.232;6.556;2022-12-11T12:41:14;101021.84;;;4.31;68.68
29359;BME280;16347;53.232;6.556;2022-12-11T12:44:09;101017.78;;;4.25;68.39
29359;BME280;16347;53.232;6.556;2022-12-11T12:46:48;101023.44;;;4.33;68.73
29359;BME280;16347;53.232;6.556;2022-12-11T12:49:29;101020.53;;;4.36;68.61
29359;BME280;16347;53.232;6.556;2022-12-11T12:52:00;101019.31;;;4.40;68.47
29359;BME280;16347;53.232;6.556;2022-12-11T12:54:31;101019.94;;;4.44;68.43
29359;BME280;16347;53.232;6.556;2022-12-11T12:57:02;101013.03;;;4.52;68.60
29359;BME280;16347;53.232;6.556;2022-12-11T12:59:33;101012.66;;;4.57;67.98
29359;BME280;16347;53.232;6.556;2022-12-11T13:02:04;101018.75;;;4.48;67.89
29359;BME280;16347;53.232;6.556;2022-12-11T13:04:38;101011.34;;;4.62;67.88
29359;BME280;16347;53.232;6.556;2022-12-11T13:07:29;101025.06;;;4.71;67.80
29359;BME280;16347;53.232;6.556;2022-12-11T13:10:04;101014.81;;;4.76;67.70
29359;BME280;16347;53.232;6.556;2022-12-11T13:12:42;101010.16;;;4.67;66.86
29359;BME280;16347;53.232;6.556;2022-12-11T13:15:29;101012.94;;;4.65;66.99
29359;BME280;16347;53.232;6.556;2022-12-11T13:18:29;101017.94;;;4.58;67.28
29359;BME280;16347;53.232;6.556;2022-12-11T13:20:58;101027.59;;;4.26;67.52
29359;BME280;16347;53.232;6.556;2022-12-11T13:23:33;101024.88;;;4.02;67.80
29359;BME280;16347;53.232;6.556;2022-12-11T13:26:08;101024.91;;;4.26;68.33